createdAt,value
2022-10-05T00:00:28.422Z,86.70
2022-10-05T00:02:56.206Z,86.43
2022-10-05T00:05:34.424Z,86.58
2022-10-05T00:08:12.096Z,86.91
2022-10-05T00:10:41.569Z,87.05
2022-10-05T00:13:26.795Z,86.84
2022-10-05T00:15:59.891Z,87.02
2022-10-05T00:18:27.966Z,86.75
2022-10-05T00:20:56.183Z,86.90
2022-10-05T00:23:31.551Z,87.36
2022-10-05T00:26:33.221Z,86.92
2022-10-05T00:29:02.863Z,86.73
2022-10-05T00:31:32.866Z,86.90
2022-10-05T00:33:59.983Z,87.18
2022-10-05T00:36:27.061Z,87.47
2022-10-05T00:38:55.357Z,87.23
2022-10-05T00:41:50.529Z,87.19
2022-10-05T00:44:33.054Z,87.38
2022-10-05T00:47:11.586Z,87.35
2022-10-05T00:49:38.534Z,87.48
2022-10-05T00:52:33.124Z,87.35
2022-10-05T00:55:25.325Z,87.36
2022-10-05T00:58:17.568Z,87.57
2022-10-05T01:00:59.020Z,87.71
2022-10-05T01:04:05.188Z,87.62
2022-10-05T01:07:03.094Z,87.74
2022-10-05T01:09:48.194Z,87.35
2022-10-05T01:12:33.681Z,87.72
2022-10-05T01:15:10.948Z,87.65
2022-10-05T01:17:42.067Z,87.32
2022-10-05T01:20:39.845Z,87.49
2022-10-05T01:23:40.544Z,88.06
2022-10-05T01:26:41.413Z,87.57
2022-10-05T01:29:22.707Z,87.92
2022-10-05T01:31:58.639Z,87.71
2022-10-05T01:34:49.975Z,88.03
2022-10-05T01:37:28.935Z,87.92
2022-10-05T01:40:08.626Z,87.81
2022-10-05T01:42:54.426Z,88.27
2022-10-05T01:45:37.437Z,87.90
2022-10-05T01:48:31.134Z,87.48
2022-10-05T01:51:20.286Z,87.63
2022-10-05T01:53:58.124Z,87.75
2022-10-05T01:56:58.316Z,88.31
2022-10-05T01:59:39.998Z,87.76
2022-10-05T02:02:11.402Z,87.70
2022-10-05T02:05:03.773Z,87.73
2022-10-05T02:07:35.173Z,87.65
2022-10-05T02:10:17.946Z,87.46
2022-10-05T02:12:47.979Z,87.32
2022-10-05T02:15:17.667Z,87.12
2022-10-05T02:17:49.460Z,86.94
2022-10-05T02:20:26.416Z,86.98
2022-10-05T02:22:56.483Z,86.92
2022-10-05T02:25:27.924Z,87.42
2022-10-05T02:28:15.358Z,86.66
2022-10-05T02:30:48.895Z,87.00
2022-10-05T02:33:30.865Z,87.10
2022-10-05T02:36:10.523Z,87.44
2022-10-05T02:38:59.617Z,87.26
2022-10-05T02:41:32.843Z,86.50
2022-10-05T02:44:34.984Z,86.54
2022-10-05T02:47:45.900Z,86.52
2022-10-05T02:50:24.586Z,86.30
2022-10-05T02:53:14.864Z,86.04
2022-10-05T02:55:50.886Z,85.62
2022-10-05T02:58:25.145Z,85.46
2022-10-05T03:00:58.910Z,85.46
2022-10-05T03:03:46.578Z,85.42
2022-10-05T03:06:29.314Z,85.29
2022-10-05T03:09:07.925Z,85.32
2022-10-05T03:12:00.374Z,85.19
2022-10-05T03:14:41.123Z,84.90
2022-10-05T03:17:19.275Z,85.22
2022-10-05T03:20:19.363Z,85.40
2022-10-05T03:23:01.923Z,84.58
2022-10-05T03:25:49.484Z,85.28
2022-10-05T03:28:35.815Z,85.12
2022-10-05T03:31:11.895Z,85.02
2022-10-05T03:33:50.864Z,85.30
2022-10-05T03:37:02.546Z,85.11
2022-10-05T03:39:42.226Z,85.48
2022-10-05T03:42:36.421Z,85.47
2022-10-05T03:45:29.010Z,85.92
2022-10-05T03:48:05.914Z,85.69
2022-10-05T03:50:44.693Z,85.71
2022-10-05T03:53:20.758Z,85.66
2022-10-05T03:56:07.834Z,86.08
2022-10-05T03:58:57.405Z,85.90
2022-10-05T04:01:39.659Z,85.75
2022-10-05T04:04:16.564Z,86.33
2022-10-05T04:06:49.468Z,86.29
2022-10-05T04:09:36.866Z,86.59
2022-10-05T04:12:22.529Z,86.40
2022-10-05T04:15:23.895Z,86.19
2022-10-05T04:18:01.624Z,86.14
2022-10-05T04:20:49.391Z,86.50
2022-10-05T04:23:42.756Z,86.29
2022-10-05T04:26:39.897Z,86.70
2022-10-05T04:29:36.559Z,87.22
2022-10-05T04:32:13.436Z,86.61
2022-10-05T04:34:55.283Z,86.81
2022-10-05T04:37:54.764Z,86.53
2022-10-05T04:44:07.367Z,86.47
2022-10-05T04:47:01.905Z,87.07
2022-10-05T04:50:27.203Z,87.08
2022-10-05T04:53:14.175Z,86.90
2022-10-05T04:55:58.380Z,87.39
2022-10-05T04:59:04.994Z,87.18
2022-10-05T05:02:03.495Z,87.35
2022-10-05T05:04:50.830Z,87.14
2022-10-05T05:07:37.125Z,87.22
2022-10-05T05:10:22.327Z,87.00
2022-10-05T05:13:24.905Z,87.12
2022-10-05T05:16:01.348Z,86.70
2022-10-05T05:19:05.794Z,86.76
2022-10-05T05:21:35.857Z,86.88
2022-10-05T05:24:21.494Z,86.46
2022-10-05T05:27:16.184Z,86.80
2022-10-05T05:29:50.310Z,86.44
2022-10-05T05:32:29.633Z,86.50
2022-10-05T05:35:02.816Z,86.37
2022-10-05T05:37:39.449Z,86.42
2022-10-05T05:40:16.752Z,86.20
2022-10-05T05:42:53.806Z,86.04
2022-10-05T05:45:31.442Z,85.49
2022-10-05T05:48:02.336Z,85.49
2022-10-05T05:51:00.968Z,85.26
2022-10-05T05:53:50.975Z,84.84
2022-10-05T05:56:24.349Z,85.29
2022-10-05T05:59:14.697Z,85.06
2022-10-05T06:01:53.078Z,84.28
2022-10-05T06:04:28.505Z,84.73
2022-10-05T06:06:58.445Z,84.74
2022-10-05T06:09:42.104Z,84.53
2022-10-05T06:12:36.203Z,84.69
2022-10-05T06:15:37.664Z,84.47
2022-10-05T06:18:12.724Z,84.50
2022-10-05T06:20:46.276Z,84.29
2022-10-05T06:23:27.508Z,83.86
2022-10-05T06:26:17.733Z,83.85
2022-10-05T06:28:56.524Z,83.73
2022-10-05T06:31:29.913Z,83.73
2022-10-05T06:34:28.058Z,83.41
2022-10-05T06:37:07.485Z,83.57
2022-10-05T06:40:18.054Z,83.12
2022-10-05T06:43:04.156Z,82.93
2022-10-05T06:46:00.398Z,82.24
2022-10-05T06:49:22.554Z,82.04
2022-10-05T06:52:19.196Z,81.82
2022-10-05T06:54:52.053Z,82.14
2022-10-05T06:57:26.259Z,81.71
2022-10-05T07:00:04.850Z,81.36
2022-10-05T07:02:35.184Z,81.48
2022-10-05T07:05:27.298Z,81.57
2022-10-05T07:08:03.275Z,81.30
2022-10-05T07:10:51.786Z,81.19
2022-10-05T07:13:37.597Z,80.95
2022-10-05T07:16:36.491Z,80.50
2022-10-05T07:19:18.634Z,80.70
2022-10-05T07:22:19.230Z,79.81
2022-10-05T07:25:12.539Z,79.99
2022-10-05T07:27:51.872Z,79.75
2022-10-05T07:30:20.547Z,79.99
2022-10-05T07:33:06.718Z,79.77
2022-10-05T07:35:55.838Z,80.05
2022-10-05T07:38:52.225Z,79.42
2022-10-05T07:41:25.074Z,79.18
2022-10-05T07:44:05.026Z,79.21
2022-10-05T07:46:57.018Z,79.39
2022-10-05T07:49:34.739Z,79.22
2022-10-05T07:52:34.656Z,78.69
2022-10-05T07:55:20.052Z,78.58
2022-10-05T07:57:47.936Z,79.05
2022-10-05T08:00:43.455Z,78.51
2022-10-05T08:03:17.629Z,78.54
2022-10-05T08:05:47.243Z,78.87
2022-10-05T08:08:32.984Z,78.62
2022-10-05T08:11:07.307Z,77.78
2022-10-05T08:13:56.074Z,78.57
2022-10-05T08:16:31.444Z,77.94
2022-10-05T08:19:24.364Z,77.66
2022-10-05T08:21:59.303Z,77.66
2022-10-05T08:24:50.005Z,76.82
2022-10-05T08:27:36.423Z,76.87
2022-10-05T08:30:09.287Z,77.34
2022-10-05T08:32:44.253Z,76.55
2022-10-05T08:35:23.405Z,76.69
2022-10-05T08:37:51.285Z,76.59
2022-10-05T08:40:52.465Z,76.23
2022-10-05T08:43:35.284Z,76.25
2022-10-05T08:46:30.582Z,75.27
2022-10-05T08:49:43.940Z,75.10
2022-10-05T08:52:31.024Z,74.53
2022-10-05T08:55:10.010Z,74.52
2022-10-05T08:57:52.285Z,74.15
2022-10-05T09:00:21.693Z,73.38
2022-10-05T09:03:20.071Z,73.08
2022-10-05T09:05:58.007Z,72.89
2022-10-05T09:09:06.725Z,72.41
2022-10-05T09:11:39.127Z,72.48
2022-10-05T09:14:18.525Z,72.55
2022-10-05T09:17:16.365Z,73.02
2022-10-05T09:20:02.084Z,72.96
2022-10-05T09:22:39.893Z,73.07
2022-10-05T09:25:22.770Z,73.15
2022-10-05T09:27:55.284Z,73.32
2022-10-05T09:30:33.997Z,74.15
2022-10-05T09:33:14.124Z,73.97
2022-10-05T09:36:03.005Z,74.02
2022-10-05T09:38:57.304Z,73.76
2022-10-05T09:41:42.787Z,72.92
2022-10-05T09:44:28.067Z,72.42
2022-10-05T09:46:58.286Z,72.55
2022-10-05T09:49:46.751Z,73.07
2022-10-05T09:52:38.704Z,71.86
2022-10-05T09:55:25.967Z,71.70
2022-10-05T09:58:48.570Z,71.28
2022-10-05T10:01:34.303Z,69.98
2022-10-05T10:04:19.139Z,70.37
2022-10-05T10:07:05.264Z,69.29
2022-10-05T10:10:13.274Z,68.41
2022-10-05T10:13:17.298Z,68.68
2022-10-05T10:16:23.804Z,68.73
2022-10-05T10:19:15.404Z,67.83
2022-10-05T10:21:49.056Z,68.01
2022-10-05T10:24:40.418Z,67.39
2022-10-05T10:27:35.308Z,67.82
2022-10-05T10:30:41.233Z,67.56
2022-10-05T10:33:13.705Z,66.76
2022-10-05T10:36:07.233Z,65.68
2022-10-05T10:39:00.190Z,66.69
2022-10-05T10:41:44.935Z,66.65
2022-10-05T10:44:33.625Z,66.94
2022-10-05T10:47:21.949Z,66.55
2022-10-05T10:50:10.716Z,65.27
2022-10-05T10:52:47.146Z,64.84
2022-10-05T10:55:55.270Z,63.70
2022-10-05T10:58:35.183Z,64.32
2022-10-05T11:01:21.146Z,64.26
2022-10-05T11:04:22.843Z,63.51
2022-10-05T11:06:56.164Z,64.71
2022-10-05T11:09:38.131Z,64.91
2022-10-05T11:12:23.678Z,64.74
2022-10-05T11:14:52.029Z,65.37
2022-10-05T11:17:31.909Z,66.12
2022-10-05T11:20:19.803Z,66.51
2022-10-05T11:23:05.427Z,67.02
2022-10-05T11:25:44.699Z,66.48
2022-10-05T11:28:49.105Z,65.87
2022-10-05T11:31:48.570Z,66.11
2022-10-05T11:34:24.698Z,66.30
2022-10-05T11:37:13.027Z,66.18
2022-10-05T11:40:04.932Z,66.10
2022-10-05T11:42:58.729Z,65.88
2022-10-05T11:45:43.961Z,66.04
2022-10-05T11:48:33.434Z,66.25
2022-10-05T11:51:34.574Z,66.11
2022-10-05T11:54:51.990Z,66.67
2022-10-05T11:57:46.929Z,66.49
2022-10-05T12:00:21.174Z,67.48
2022-10-05T12:03:00.726Z,67.43
2022-10-05T12:05:55.743Z,66.85
2022-10-05T12:08:48.404Z,67.43
2022-10-05T12:11:40.395Z,66.40
2022-10-05T12:14:16.542Z,66.36
2022-10-05T12:16:54.485Z,65.91
2022-10-05T12:19:36.904Z,65.82
2022-10-05T12:22:15.854Z,66.40
2022-10-05T12:25:02.243Z,66.62
2022-10-05T12:27:39.487Z,65.59
2022-10-05T12:30:16.295Z,65.89
2022-10-05T12:33:01.617Z,65.53
2022-10-05T12:35:47.869Z,65.60
2022-10-05T12:38:28.761Z,66.02
2022-10-05T12:43:54.827Z,66.32
2022-10-05T12:46:34.319Z,66.45
2022-10-05T12:49:38.231Z,66.37
2022-10-05T12:52:11.550Z,66.79
2022-10-05T12:54:48.517Z,66.84
2022-10-05T12:57:43.172Z,66.90
2022-10-05T13:00:31.720Z,66.97
2022-10-05T13:03:18.130Z,66.62
2022-10-05T13:06:08.182Z,66.87
2022-10-05T13:08:51.596Z,66.90
2022-10-05T13:11:30.579Z,66.42
2022-10-05T13:14:16.671Z,66.36
2022-10-05T13:17:28.857Z,66.43
2022-10-05T13:20:07.983Z,66.62
2022-10-05T13:22:41.287Z,66.24
2022-10-05T13:25:14.159Z,66.31
2022-10-05T13:27:45.969Z,65.83
2022-10-05T13:30:18.189Z,65.71
2022-10-05T13:32:52.364Z,66.03
2022-10-05T13:35:49.190Z,64.61
2022-10-05T13:38:25.200Z,65.35
2022-10-05T13:41:17.981Z,64.41
2022-10-05T13:44:23.360Z,65.44
2022-10-05T13:47:09.382Z,64.90
2022-10-05T13:49:51.074Z,64.83
2022-10-05T13:52:26.893Z,64.89
2022-10-05T13:55:21.116Z,65.07
2022-10-05T13:57:59.070Z,65.45
2022-10-05T14:00:27.422Z,65.52
2022-10-05T14:02:57.364Z,65.92
2022-10-05T14:05:29.562Z,66.04
2022-10-05T14:08:10.497Z,66.20
2022-10-05T14:10:39.491Z,66.28
2022-10-05T14:13:23.733Z,67.02
2022-10-05T14:16:15.493Z,67.10
2022-10-05T14:19:18.740Z,67.53
2022-10-05T14:21:59.779Z,67.40
2022-10-05T14:24:43.743Z,67.30
2022-10-05T14:27:30.671Z,67.39
2022-10-05T14:30:02.249Z,67.75
2022-10-05T14:32:43.601Z,67.94
2022-10-05T14:35:10.553Z,67.78
2022-10-05T14:37:46.880Z,67.61
2022-10-05T14:40:31.371Z,68.17
2022-10-05T14:43:01.867Z,68.35
2022-10-05T14:45:33.550Z,68.09
2022-10-05T14:48:00.795Z,68.48
2022-10-05T14:50:31.009Z,68.14
2022-10-05T14:53:10.507Z,68.46
2022-10-05T14:56:12.789Z,68.64
2022-10-05T14:59:05.381Z,68.94
2022-10-05T15:01:36.790Z,69.34
2022-10-05T15:04:25.302Z,69.01
2022-10-05T15:07:04.097Z,69.08
2022-10-05T15:09:40.156Z,69.50
2022-10-05T15:12:07.771Z,69.16
2022-10-05T15:14:43.671Z,69.83
2022-10-05T15:17:18.325Z,70.07
2022-10-05T15:20:13.479Z,70.27
2022-10-05T15:23:00.639Z,70.39
2022-10-05T15:25:46.774Z,70.56
2022-10-05T15:28:37.918Z,71.15
2022-10-05T15:31:19.030Z,71.33
2022-10-05T15:33:56.950Z,71.51
2022-10-05T15:37:03.732Z,71.70
2022-10-05T15:39:44.778Z,71.95
2022-10-05T15:42:16.633Z,71.77
2022-10-05T15:45:13.719Z,72.08
2022-10-05T15:47:47.473Z,72.09
2022-10-05T15:50:17.508Z,72.19
2022-10-05T15:53:05.507Z,72.45
2022-10-05T15:55:53.139Z,72.07
2022-10-05T15:58:31.660Z,72.30
2022-10-05T16:01:05.666Z,72.44
2022-10-05T16:03:49.568Z,72.88
2022-10-05T16:07:02.547Z,72.79
2022-10-05T16:09:47.563Z,73.23
2022-10-05T16:12:38.492Z,73.47
2022-10-05T16:15:26.819Z,73.29
2022-10-05T16:18:12.368Z,73.48
2022-10-05T16:20:57.346Z,73.50
2022-10-05T16:23:42.068Z,73.86
2022-10-05T16:26:32.790Z,74.25
2022-10-05T16:29:11.490Z,74.39
2022-10-05T16:32:06.003Z,74.80
2022-10-05T16:34:49.761Z,74.79
2022-10-05T16:37:37.219Z,75.00
2022-10-05T16:40:04.328Z,74.97
2022-10-05T16:42:57.990Z,75.39
2022-10-05T16:45:44.650Z,75.45
2022-10-05T16:48:28.539Z,75.44
2022-10-05T16:51:17.365Z,75.83
2022-10-05T16:54:37.640Z,75.97
2022-10-05T16:57:18.121Z,76.24
2022-10-05T16:59:54.412Z,76.20
2022-10-05T17:02:27.608Z,76.45
2022-10-05T17:05:07.576Z,76.97
2022-10-05T17:07:53.650Z,76.85
2022-10-05T17:10:38.120Z,76.85
2022-10-05T17:13:29.844Z,76.92
2022-10-05T17:16:24.217Z,76.98
2022-10-05T17:19:15.599Z,77.21
2022-10-05T17:22:08.028Z,77.35
2022-10-05T17:24:58.388Z,77.47
2022-10-05T17:27:25.451Z,77.13
2022-10-05T17:30:16.249Z,77.40
2022-10-05T17:33:04.791Z,77.14
2022-10-05T17:36:08.788Z,77.22
2022-10-05T17:38:35.748Z,77.20
2022-10-05T17:41:06.638Z,77.39
2022-10-05T17:43:34.352Z,77.51
2022-10-05T17:46:10.128Z,77.66
2022-10-05T17:49:13.588Z,77.96
2022-10-05T17:51:59.234Z,78.02
2022-10-05T17:54:50.101Z,77.95
2022-10-05T17:57:25.784Z,78.00
2022-10-05T17:59:52.919Z,78.16
2022-10-05T18:02:20.152Z,77.94
2022-10-05T18:05:05.314Z,78.14
2022-10-05T18:07:38.366Z,77.98
2022-10-05T18:10:17.277Z,77.76
2022-10-05T18:12:46.162Z,77.68
2022-10-05T18:15:25.353Z,77.91
2022-10-05T18:17:53.399Z,77.60
2022-10-05T18:20:32.498Z,77.49
2022-10-05T18:23:09.930Z,77.62
2022-10-05T18:26:06.771Z,77.46
2022-10-05T18:28:57.639Z,77.38
2022-10-05T18:32:05.372Z,77.29
2022-10-05T18:34:38.625Z,77.17
2022-10-05T18:37:31.950Z,77.06
2022-10-05T18:40:22.131Z,77.18
2022-10-05T18:43:00.747Z,76.74
2022-10-05T18:45:40.143Z,76.61
2022-10-05T18:48:20.623Z,76.24
2022-10-05T18:51:01.081Z,76.40
2022-10-05T18:53:34.302Z,76.25
2022-10-05T18:56:13.293Z,76.43
2022-10-05T18:59:10.111Z,76.37
2022-10-05T19:02:19.012Z,76.63
2022-10-05T19:04:52.020Z,76.41
2022-10-05T19:07:42.883Z,76.45
2022-10-05T19:10:23.282Z,76.57
2022-10-05T19:12:52.893Z,76.39
2022-10-05T19:15:41.735Z,76.51
2022-10-05T19:18:19.917Z,76.69
2022-10-05T19:21:14.954Z,76.94
2022-10-05T19:24:04.685Z,76.80
2022-10-05T19:26:55.110Z,76.83
2022-10-05T19:29:33.696Z,76.66
2022-10-05T19:32:18.961Z,76.46
2022-10-05T19:34:55.008Z,76.71
2022-10-05T19:37:58.317Z,76.57
2022-10-05T19:40:41.265Z,76.68
2022-10-05T19:43:23.509Z,76.79
2022-10-05T19:46:19.046Z,76.36
2022-10-05T19:48:56.423Z,76.42
2022-10-05T19:51:37.312Z,76.40
2022-10-05T19:54:22.527Z,76.49
2022-10-05T19:56:53.620Z,76.35
2022-10-05T19:59:25.594Z,76.12
2022-10-05T20:01:55.648Z,76.19
2022-10-05T20:04:33.571Z,76.24
2022-10-05T20:07:02.280Z,76.21
2022-10-05T20:09:29.969Z,75.80
2022-10-05T20:11:57.209Z,75.93
2022-10-05T20:14:32.591Z,75.98
2022-10-05T20:17:45.251Z,75.79
2022-10-05T20:20:43.301Z,75.82
2022-10-05T20:23:30.950Z,75.51
2022-10-05T20:26:16.538Z,75.79
2022-10-05T20:28:44.627Z,75.39
2022-10-05T20:31:12.676Z,75.90
2022-10-05T20:33:40.410Z,75.48
2022-10-05T20:36:08.877Z,75.36
2022-10-05T20:38:40.811Z,75.53
2022-10-05T20:41:08.746Z,75.59
2022-10-05T20:43:39.108Z,75.44
2022-10-05T20:46:06.550Z,75.45
2022-10-05T20:48:34.804Z,75.40
2022-10-05T20:51:02.229Z,75.59
2022-10-05T20:53:29.647Z,75.65
2022-10-05T20:56:04.986Z,75.55
2022-10-05T20:58:32.094Z,75.30
2022-10-05T21:01:20.262Z,75.44
2022-10-05T21:03:47.871Z,75.16
2022-10-05T21:06:15.359Z,75.68
2022-10-05T21:08:42.459Z,75.33
2022-10-05T21:11:09.458Z,75.59
2022-10-05T21:13:36.943Z,75.54
2022-10-05T21:16:05.758Z,75.64
2022-10-05T21:18:33.691Z,75.71
2022-10-05T21:21:02.292Z,75.31
2022-10-05T21:23:29.687Z,75.42
2022-10-05T21:25:56.906Z,75.45
2022-10-05T21:28:24.425Z,75.26
2022-10-05T21:30:51.757Z,75.30
2022-10-05T21:33:19.050Z,75.27
2022-10-05T21:35:46.421Z,75.63
2022-10-05T21:38:13.499Z,75.38
2022-10-05T21:40:40.862Z,75.17
2022-10-05T21:43:07.936Z,75.45
2022-10-05T21:45:35.290Z,75.11
2022-10-05T21:48:02.509Z,75.05
2022-10-05T21:50:29.933Z,75.46
2022-10-05T21:52:57.054Z,75.62
2022-10-05T21:55:24.309Z,75.45
2022-10-05T21:57:51.453Z,75.67
2022-10-05T22:00:18.659Z,75.53
2022-10-05T22:02:45.677Z,75.50
2022-10-05T22:05:12.775Z,75.18
2022-10-05T22:07:39.898Z,75.35
2022-10-05T22:10:07.613Z,75.70
2022-10-05T22:12:34.801Z,76.00
2022-10-05T22:15:01.988Z,75.55
2022-10-05T22:17:31.639Z,75.99
2022-10-05T22:20:00.358Z,76.22
2022-10-05T22:22:28.611Z,76.32
2022-10-05T22:24:56.116Z,75.99
2022-10-05T22:27:25.892Z,76.27
2022-10-05T22:29:55.203Z,76.52
2022-10-05T22:32:22.171Z,76.85
2022-10-05T22:34:49.408Z,76.59
2022-10-05T22:37:16.618Z,76.77
2022-10-05T22:39:44.180Z,76.89
2022-10-05T22:42:11.875Z,77.14
2022-10-05T22:44:39.923Z,76.88
2022-10-05T22:47:07.039Z,77.01
2022-10-05T22:49:33.990Z,77.17
2022-10-05T22:52:01.048Z,77.53
2022-10-05T22:54:30.104Z,77.44
2022-10-05T22:56:59.039Z,77.77
2022-10-05T22:59:26.255Z,77.88
2022-10-05T23:01:53.590Z,77.58
2022-10-05T23:04:20.708Z,78.04
2022-10-05T23:06:48.332Z,77.55
2022-10-05T23:09:15.756Z,77.79
2022-10-05T23:11:43.039Z,78.28
2022-10-05T23:14:10.286Z,78.04
2022-10-05T23:16:37.547Z,77.83
2022-10-05T23:19:04.659Z,78.53
2022-10-05T23:21:31.881Z,77.98
2022-10-05T23:23:58.971Z,78.35
2022-10-05T23:26:26.889Z,78.38
2022-10-05T23:28:54.289Z,78.06
2022-10-05T23:31:23.938Z,78.41
2022-10-05T23:33:52.229Z,78.39
2022-10-05T23:36:22.428Z,78.42
2022-10-05T23:38:50.177Z,78.66
2022-10-05T23:41:18.107Z,78.75
2022-10-05T23:43:45.346Z,79.00
2022-10-05T23:46:13.728Z,79.09
2022-10-05T23:48:40.912Z,79.06
2022-10-05T23:51:10.642Z,78.58
2022-10-05T23:53:38.138Z,79.15
2022-10-05T23:56:05.410Z,78.86
2022-10-05T23:58:32.767Z,79.04
